Time;durP1;ratioP1;P1;durP2;ratioP2;P2;SDS_P1;SDS_P2;PMS_P1;PMS_P2;Temp;Humidity;BMP_temperature;BMP_pressure;BME280_temperature;BME280_humidity;BME280_pressure;Samples;Min_cycle;Max_cycle;Signal;HPM_P1;HPM_P2
2024/01/19 00:02:16;;;;;;;2.45;1.08;;;-0.10;99.90;;;;;;5002614;28;20049;-80
2024/01/19 00:04:42;;;;;;;1.77;0.43;;;0.00;99.90;;;;;;4992506;28;20041;-80
2024/01/19 00:07:08;;;;;;;2.53;0.55;;;-0.10;99.90;;;;;;4992618;28;20052;-81
2024/01/19 00:09:34;;;;;;;3.00;0.50;;;-0.10;99.90;;;;;;5010395;28;20507;-81
2024/01/19 00:11:59;;;;;;;4.88;0.70;;;-0.10;99.90;;;;;;5010438;28;20042;-81
2024/01/19 00:14:28;;;;;;;3.15;0.40;;;-0.10;99.90;;;;;;4992425;28;20042;-81
2024/01/19 00:16:53;;;;;;;0.98;0.35;;;0.00;99.90;;;;;;4992813;28;20045;-81
2024/01/19 00:19:19;;;;;;;5.07;0.57;;;0.10;99.90;;;;;;4992348;28;20756;-80
2024/01/19 00:21:46;;;;;;;6.05;0.60;;;1.20;99.90;;;;;;4991608;28;20053;-80
2024/01/19 00:24:12;;;;;;;1.55;0.60;;;1.60;99.90;;;;;;5003538;28;20094;-81
2024/01/19 00:26:38;;;;;;;4.90;0.40;;;0.30;99.90;;;;;;5002100;28;20064;-81
2024/01/19 00:29:04;;;;;;;4.00;0.47;;;0.30;99.90;;;;;;5010167;28;20041;-81
2024/01/19 00:31:30;;;;;;;3.00;0.60;;;0.40;99.90;;;;;;5010106;28;20052;-80
2024/01/19 00:33:56;;;;;;;6.72;0.52;;;0.40;99.90;;;;;;4989966;28;20045;-80
2024/01/19 00:36:22;;;;;;;3.17;0.90;;;0.40;99.90;;;;;;5009889;28;20045;-81
2024/01/19 00:38:48;;;;;;;10.80;0.90;;;0.40;99.90;;;;;;5010003;28;20441;-80
2024/01/19 00:41:13;;;;;;;3.70;0.50;;;0.40;99.90;;;;;;4992550;28;20468;-80
2024/01/19 00:43:39;;;;;;;1.63;0.50;;;0.40;99.90;;;;;;5010211;28;20087;-80
2024/01/19 00:46:04;;;;;;;4.70;0.80;;;1.70;99.90;;;;;;5013032;28;20056;-80
2024/01/19 00:48:30;;;;;;;1.70;0.50;;;0.40;99.90;;;;;;4979911;28;20053;-81
2024/01/19 00:50:56;;;;;;;3.13;0.60;;;0.20;99.90;;;;;;5013634;28;20042;-81
2024/01/19 00:53:22;;;;;;;5.90;0.60;;;1.30;99.90;;;;;;5013300;28;20053;-81
2024/01/19 00:55:48;;;;;;;3.10;0.50;;;0.30;99.90;;;;;;4995902;28;20370;-81
2024/01/19 00:58:15;;;;;;;5.32;1.00;;;0.20;99.90;;;;;;5013484;28;20048;-81
2024/01/19 01:00:40;;;;;;;6.75;0.70;;;0.20;99.90;;;;;;4995673;28;20065;-80
2024/01/19 01:03:06;;;;;;;0.90;0.38;;;0.20;99.90;;;;;;4995560;28;20050;-81
2024/01/19 01:05:32;;;;;;;1.00;0.30;;;0.30;99.90;;;;;;5013571;28;20044;-80
2024/01/19 01:07:57;;;;;;;4.10;0.80;;;0.30;99.90;;;;;;5012962;28;20034;-81
2024/01/19 01:10:23;;;;;;;1.25;0.55;;;0.20;99.90;;;;;;5013315;28;20488;-80
2024/01/19 01:12:49;;;;;;;1.95;0.65;;;0.10;99.90;;;;;;5013249;28;20038;-82
2024/01/19 01:15:14;;;;;;;1.85;0.60;;;0.10;99.90;;;;;;4995414;28;20045;-81
2024/01/19 01:17:40;;;;;;;5.07;1.02;;;0.00;99.90;;;;;;5006532;28;20042;-81
2024/01/19 01:20:06;;;;;;;6.32;0.75;;;0.00;99.90;;;;;;5013247;28;20045;-81
2024/01/19 01:22:32;;;;;;;6.03;0.75;;;-0.10;99.90;;;;;;5004740;28;20044;-82
2024/01/19 01:24:58;;;;;;;2.92;0.50;;;-0.30;99.90;;;;;;5012670;28;20413;-81
2024/01/19 01:27:24;;;;;;;2.80;0.60;;;-0.30;99.90;;;;;;5012896;28;20527;-81
2024/01/19 01:29:49;;;;;;;4.15;0.70;;;-0.40;99.90;;;;;;5013013;28;20045;-82
2024/01/19 01:32:15;;;;;;;3.88;0.75;;;-0.40;99.90;;;;;;4995222;28;20052;-81
2024/01/19 01:34:40;;;;;;;3.50;0.70;;;-0.40;99.90;;;;;;4994935;28;20174;-80
2024/01/19 01:37:06;;;;;;;3.42;0.73;;;-0.40;99.90;;;;;;5005361;28;20421;-81
2024/01/19 01:39:32;;;;;;;3.67;0.70;;;-0.60;99.90;;;;;;4994568;28;20690;-81
2024/01/19 01:41:58;;;;;;;5.28;0.90;;;-0.50;99.90;;;;;;4995376;28;20046;-81
2024/01/19 01:44:23;;;;;;;2.05;0.52;;;-0.50;99.90;;;;;;4995168;28;20085;-81
2024/01/19 01:46:49;;;;;;;5.28;0.70;;;-0.70;99.90;;;;;;5010695;28;20050;-81
2024/01/19 01:49:15;;;;;;;3.95;0.85;;;-0.60;99.90;;;;;;4995192;28;20057;-81
2024/01/19 01:51:41;;;;;;;4.43;0.80;;;-0.60;99.90;;;;;;4994855;28;20511;-82
2024/01/19 01:54:07;;;;;;;6.43;1.02;;;-0.70;99.90;;;;;;5012623;28;20038;-81
2024/01/19 01:56:34;;;;;;;6.55;0.60;;;-0.70;99.90;;;;;;4993935;28;20049;-82
2024/01/19 01:59:00;;;;;;;5.05;1.30;;;-0.70;99.90;;;;;;5012244;28;20038;-81
2024/01/19 02:01:26;;;;;;;5.60;0.88;;;-0.80;99.90;;;;;;5012435;28;20037;-82
2024/01/19 02:03:54;;;;;;;4.43;1.17;;;-0.80;99.90;;;;;;4994647;28;20042;-82
2024/01/19 02:06:20;;;;;;;1.98;0.65;;;-1.00;99.90;;;;;;5012483;28;20088;-82
2024/01/19 02:08:46;;;;;;;4.93;0.82;;;-0.90;99.90;;;;;;5012507;28;20037;-81
2024/01/19 02:11:12;;;;;;;4.72;0.77;;;-0.90;99.90;;;;;;4994500;28;20428;-82
2024/01/19 02:13:37;;;;;;;2.83;0.57;;;-0.80;99.90;;;;;;4994424;28;20053;-82
2024/01/19 02:16:03;;;;;;;2.72;1.02;;;-0.90;99.90;;;;;;4977139;28;20177;-81
2024/01/19 02:18:29;;;;;;;4.88;1.00;;;-0.70;99.90;;;;;;4993789;28;20065;-83
2024/01/19 02:20:55;;;;;;;2.65;0.80;;;-0.90;99.90;;;;;;4994412;28;20045;-82
2024/01/19 02:23:25;;;;;;;2.50;0.73;;;-0.80;99.90;;;;;;5013886;28;20493;-82
2024/01/19 02:25:51;;;;;;;7.05;0.98;;;-0.90;99.90;;;;;;5012080;28;20046;-82
2024/01/19 02:28:18;;;;;;;3.80;0.90;;;-0.80;99.90;;;;;;5011489;28;20046;-83
2024/01/19 02:30:44;;;;;;;3.92;0.68;;;-0.90;99.90;;;;;;4994381;28;20038;-82
2024/01/19 02:33:11;;;;;;;4.70;1.38;;;-0.80;99.90;;;;;;5011955;28;20085;-82
2024/01/19 02:35:37;;;;;;;6.97;1.00;;;-0.70;99.90;;;;;;5010770;28;20037;-82
2024/01/19 02:38:03;;;;;;;4.35;0.70;;;0.50;99.90;;;;;;4988440;28;20042;-81
2024/01/19 02:40:28;;;;;;;2.55;0.70;;;-0.60;99.90;;;;;;5011698;28;20631;-82
2024/01/19 02:42:54;;;;;;;5.82;1.48;;;-0.70;99.90;;;;;;4994163;28;20144;-81
2024/01/19 02:45:20;;;;;;;5.15;0.70;;;0.60;99.90;;;;;;5011711;28;20184;-84
2024/01/19 02:47:45;;;;;;;5.25;0.80;;;-0.80;99.90;;;;;;5010475;28;20045;-81
2024/01/19 02:50:11;;;;;;;2.95;0.95;;;-0.80;99.90;;;;;;4994677;28;20064;-81
2024/01/19 02:52:36;;;;;;;3.65;0.75;;;-0.30;99.90;;;;;;4994261;28;20056;-81
2024/01/19 02:55:04;;;;;;;7.32;1.02;;;-0.80;99.90;;;;;;4993975;28;20049;-82
2024/01/19 02:57:31;;;;;;;5.65;0.60;;;-0.70;99.90;;;;;;5011625;28;20041;-80
2024/01/19 02:59:56;;;;;;;1.70;0.60;;;0.80;99.90;;;;;;4989371;28;20042;-80
2024/01/19 03:02:22;;;;;;;6.30;1.02;;;-0.70;99.90;;;;;;5011479;28;20500;-81
2024/01/19 03:04:48;;;;;;;4.55;0.90;;;-0.80;99.90;;;;;;4993787;28;20046;-82
2024/01/19 03:07:13;;;;;;;3.25;0.88;;;-0.70;99.90;;;;;;4993201;28;20408;-81
2024/01/19 03:09:39;;;;;;;3.28;0.70;;;-0.70;99.90;;;;;;4993721;28;20592;-81
2024/01/19 03:12:05;;;;;;;5.75;0.50;;;-0.70;99.90;;;;;;5011150;28;20473;-81
2024/01/19 03:14:33;;;;;;;6.22;1.05;;;-0.60;99.90;;;;;;5011276;28;20185;-81
2024/01/19 03:16:58;;;;;;;3.75;0.70;;;-0.50;99.90;;;;;;4987428;28;20046;-81
2024/01/19 03:19:24;;;;;;;1.48;0.60;;;-0.50;99.90;;;;;;4993178;28;20065;-81
2024/01/19 03:21:50;;;;;;;5.13;1.05;;;-0.40;99.90;;;;;;4993821;28;20381;-80
2024/01/19 03:24:16;;;;;;;12.10;1.52;;;-0.30;99.90;;;;;;4976918;28;20587;-81
2024/01/19 03:26:42;;;;;;;9.60;1.27;;;-0.20;99.90;;;;;;5004576;28;20057;-81
2024/01/19 03:29:08;;;;;;;5.15;1.00;;;-0.20;99.90;;;;;;4981254;28;20435;-81
2024/01/19 03:31:34;;;;;;;5.10;0.50;;;-0.30;99.90;;;;;;4992778;28;20654;-80
2024/01/19 03:34:00;;;;;;;13.52;1.25;;;-0.20;99.90;;;;;;5010728;28;20034;-81
2024/01/19 03:36:26;;;;;;;5.85;0.73;;;-0.20;99.90;;;;;;4984691;28;20807;-82
2024/01/19 03:38:51;;;;;;;5.35;1.27;;;-0.40;99.90;;;;;;4993260;28;20396;-81
2024/01/19 03:41:17;;;;;;;6.28;1.13;;;-0.20;99.90;;;;;;4993021;28;20037;-81
2024/01/19 03:43:44;;;;;;;4.50;0.90;;;1.00;99.90;;;;;;4993016;28;20037;-81
2024/01/19 03:46:10;;;;;;;10.13;1.20;;;-0.30;99.90;;;;;;5009214;28;20103;-82
2024/01/19 03:48:35;;;;;;;8.07;0.90;;;-0.40;99.90;;;;;;4992691;28;20050;-80
2024/01/19 03:51:01;;;;;;;6.03;0.70;;;-0.20;99.90;;;;;;4993175;28;20168;-81
2024/01/19 03:53:27;;;;;;;8.80;0.80;;;-0.30;99.90;;;;;;4993303;28;20046;-81
2024/01/19 03:55:52;;;;;;;5.32;0.73;;;-0.20;99.90;;;;;;5010684;28;20130;-80
2024/01/19 03:58:18;;;;;;;4.43;0.63;;;-0.20;99.90;;;;;;4993248;28;20488;-81
2024/01/19 04:00:44;;;;;;;5.57;0.68;;;-0.40;99.90;;;;;;4989834;28;20041;-81
2024/01/19 04:03:09;;;;;;;6.32;0.70;;;-0.40;99.90;;;;;;5008658;28;20074;-82
2024/01/19 04:05:35;;;;;;;3.30;0.70;;;-0.50;99.90;;;;;;4992778;28;20496;-81
2024/01/19 04:08:02;;;;;;;5.90;1.48;;;0.50;99.90;;;;;;4992812;28;20049;-82
2024/01/19 04:10:28;;;;;;;5.50;0.60;;;1.10;99.90;;;;;;5007972;28;20124;-81
2024/01/19 04:12:54;;;;;;;6.47;0.55;;;-0.70;99.90;;;;;;4991665;28;20188;-81
2024/01/19 04:15:19;;;;;;;4.13;0.52;;;0.40;99.90;;;;;;5009301;28;20046;-81
2024/01/19 04:17:45;;;;;;;15.95;2.28;;;-0.90;99.90;;;;;;5008481;28;20416;-81
2024/01/19 04:20:11;;;;;;;3.85;0.52;;;0.60;99.90;;;;;;4994931;28;20050;-81
2024/01/19 04:22:36;;;;;;;5.85;0.70;;;-1.00;99.90;;;;;;5013082;28;20042;-82
2024/01/19 04:25:02;;;;;;;10.55;0.98;;;-1.00;99.90;;;;;;5008875;28;20085;-82
2024/01/19 04:27:28;;;;;;;5.15;0.82;;;-1.00;99.90;;;;;;5034175;28;20146;-83
2024/01/19 04:29:53;;;;;;;9.90;1.02;;;-1.10;99.90;;;;;;5015414;28;20064;-81
2024/01/19 04:32:20;;;;;;;7.53;1.33;;;-1.30;99.90;;;;;;5024537;28;20065;-81
2024/01/19 04:34:46;;;;;;;9.57;1.20;;;-1.20;99.90;;;;;;5015983;28;20077;-83
2024/01/19 04:37:11;;;;;;;9.05;0.70;;;-1.20;99.90;;;;;;5009770;28;20085;-81
2024/01/19 04:39:37;;;;;;;6.70;1.15;;;-1.20;99.90;;;;;;5030096;28;20451;-81
2024/01/19 04:42:03;;;;;;;9.35;1.17;;;-1.30;99.90;;;;;;5016113;28;20119;-81
2024/01/19 04:44:28;;;;;;;7.65;1.35;;;-1.40;99.90;;;;;;4998864;28;20546;-82
2024/01/19 04:46:54;;;;;;;7.13;0.93;;;-1.50;99.90;;;;;;5033788;28;20052;-81
2024/01/19 04:49:19;;;;;;;11.60;1.05;;;-1.60;99.90;;;;;;5012237;28;20045;-82
2024/01/19 04:51:45;;;;;;;13.00;1.60;;;-1.60;99.90;;;;;;5027260;28;20045;-81
2024/01/19 04:54:11;;;;;;;7.85;1.00;;;-1.60;99.90;;;;;;5026548;28;20096;-84
2024/01/19 04:56:36;;;;;;;7.47;1.17;;;-1.70;99.90;;;;;;5014465;28;20041;-82
2024/01/19 04:59:02;;;;;;;11.65;1.17;;;-1.70;99.90;;;;;;5033225;28;20481;-82
2024/01/19 05:01:28;;;;;;;13.00;1.35;;;-2.00;99.90;;;;;;5032124;28;20048;-82
2024/01/19 05:03:54;;;;;;;11.43;1.00;;;-1.80;99.90;;;;;;5030880;28;20116;-82
2024/01/19 05:06:19;;;;;;;12.15;2.20;;;-2.00;99.90;;;;;;5033049;28;20592;-83
2024/01/19 05:08:46;;;;;;;4.03;0.93;;;-1.80;99.90;;;;;;5013458;28;20453;-82
2024/01/19 05:11:13;;;;;;;7.68;1.00;;;-1.80;99.90;;;;;;5032634;28;20052;-83
2024/01/19 05:13:43;;;;;;;5.60;1.00;;;-1.90;99.90;;;;;;5031389;28;20045;-82
2024/01/19 05:16:09;;;;;;;6.57;0.80;;;-1.80;99.90;;;;;;5005098;28;20047;-83
2024/01/19 05:18:35;;;;;;;12.43;1.52;;;-1.80;99.90;;;;;;5023307;28;20038;-82
2024/01/19 05:21:01;;;;;;;5.07;1.10;;;-2.10;99.90;;;;;;5014049;28;20065;-82
2024/01/19 05:23:28;;;;;;;7.70;1.23;;;-1.80;99.90;;;;;;5014031;28;20057;-85
2024/01/19 05:25:54;;;;;;;7.53;1.20;;;-1.80;99.90;;;;;;5014261;28;20049;-82
2024/01/19 05:28:19;;;;;;;8.50;1.27;;;-1.90;99.90;;;;;;5015536;28;20045;-82
2024/01/19 05:30:45;;;;;;;4.70;0.82;;;-1.80;99.90;;;;;;5031398;28;20045;-82
2024/01/19 05:33:11;;;;;;;12.60;1.90;;;-1.80;99.90;;;;;;5030479;28;20038;-82
2024/01/19 05:35:36;;;;;;;7.57;2.13;;;-1.90;99.90;;;;;;5032901;28;20076;-82
2024/01/19 05:38:03;;;;;;;10.00;0.90;;;-1.90;99.90;;;;;;5023992;28;20038;-82
2024/01/19 05:40:28;;;;;;;7.82;1.35;;;-1.80;99.90;;;;;;5023980;28;20045;-82
2024/01/19 05:42:54;;;;;;;7.35;1.80;;;-1.80;99.90;;;;;;5025147;28;20044;-83
2024/01/19 05:45:21;;;;;;;7.10;0.98;;;-1.90;99.90;;;;;;5032118;28;20051;-84
2024/01/19 05:47:46;;;;;;;15.52;1.17;;;-1.80;99.90;;;;;;5032621;28;20049;-82
2024/01/19 05:50:12;;;;;;;9.02;0.90;;;-1.80;99.90;;;;;;5027351;28;20052;-82
2024/01/19 05:52:37;;;;;;;5.32;1.00;;;-1.80;99.90;;;;;;5014495;28;20544;-81
2024/01/19 05:55:05;;;;;;;4.25;1.13;;;-1.90;99.90;;;;;;5031957;28;20049;-82
2024/01/19 05:57:30;;;;;;;7.97;1.48;;;-1.90;99.90;;;;;;5032386;28;20041;-85
2024/01/19 05:59:56;;;;;;;9.85;1.10;;;-1.90;99.90;;;;;;5032353;28;20632;-83
2024/01/19 06:02:22;;;;;;;20.25;2.13;;;-1.90;99.90;;;;;;5025862;28;20622;-82
2024/01/19 06:04:47;;;;;;;9.32;1.10;;;-1.00;99.90;;;;;;5023744;28;20094;-82
2024/01/19 06:07:13;;;;;;;11.38;1.63;;;-1.90;99.90;;;;;;5029811;28;20049;-82
2024/01/19 06:09:39;;;;;;;7.25;1.23;;;-1.70;99.90;;;;;;5013848;28;20064;-80
2024/01/19 06:12:05;;;;;;;7.65;1.23;;;-1.50;99.90;;;;;;5031717;28;20052;-81
2024/01/19 06:14:31;;;;;;;12.38;1.58;;;-1.50;99.90;;;;;;5032090;28;20054;-81
2024/01/19 06:16:57;;;;;;;8.05;1.10;;;-1.30;99.90;;;;;;4996799;28;20052;-82
2024/01/19 06:19:22;;;;;;;16.73;1.77;;;-1.30;99.90;;;;;;5014221;28;20092;-81
2024/01/19 06:21:48;;;;;;;9.73;1.40;;;-1.20;99.90;;;;;;5013053;28;20153;-82
2024/01/19 06:24:17;;;;;;;9.57;1.45;;;-1.20;99.90;;;;;;5010363;28;20060;-82
2024/01/19 06:26:47;;;;;;;13.50;1.52;;;-1.10;99.90;;;;;;5031370;28;20088;-81
2024/01/19 06:29:13;;;;;;;7.50;1.67;;;-1.20;99.90;;;;;;5031733;28;20061;-82
2024/01/19 06:31:45;;;;;;;10.93;1.98;;;-1.00;99.90;;;;;;5027222;28;20041;-82
2024/01/19 06:34:12;;;;;;;12.05;1.50;;;-1.30;99.90;;;;;;5030672;28;20056;-82
2024/01/19 06:36:37;;;;;;;9.80;1.98;;;-1.30;99.90;;;;;;5010697;28;20046;-83
2024/01/19 06:39:04;;;;;;;14.00;1.50;;;-1.30;99.90;;;;;;5023747;28;20412;-81
2024/01/19 06:41:32;;;;;;;15.55;2.00;;;-1.40;99.90;;;;;;5012789;28;20057;-80
2024/01/19 06:43:58;;;;;;;13.55;1.65;;;-1.30;99.90;;;;;;5029683;28;20041;-85
2024/01/19 06:46:24;;;;;;;14.07;2.00;;;-1.40;99.90;;;;;;5012739;28;20134;-81
2024/01/19 06:48:49;;;;;;;8.13;1.38;;;-1.40;99.90;;;;;;5031592;28;20037;-81
2024/01/19 06:51:23;;;;;;;10.52;1.65;;;-0.40;99.90;;;;;;5008133;28;20477;-81
2024/01/19 06:53:49;;;;;;;14.25;1.98;;;-1.40;99.90;;;;;;5023828;28;20041;-81
2024/01/19 06:56:15;;;;;;;16.60;2.38;;;-1.30;99.90;;;;;;5031307;28;20449;-81
2024/01/19 06:58:40;;;;;;;15.45;1.92;;;-1.40;99.90;;;;;;5030557;28;20053;-81
2024/01/19 07:01:06;;;;;;;5.97;1.38;;;-1.50;99.90;;;;;;5012222;28;20408;-81
2024/01/19 07:03:32;;;;;;;9.60;1.42;;;-1.50;99.90;;;;;;5007220;28;20053;-81
2024/01/19 07:05:57;;;;;;;8.57;1.83;;;-1.40;99.90;;;;;;5030868;28;20037;-81
2024/01/19 07:08:23;;;;;;;11.07;1.52;;;-1.40;99.90;;;;;;5030829;28;20508;-80
2024/01/19 07:10:49;;;;;;;9.50;2.08;;;-1.50;99.90;;;;;;5030496;28;20120;-81
2024/01/19 07:13:15;;;;;;;8.70;2.10;;;-1.50;99.90;;;;;;5030987;28;20049;-81
2024/01/19 07:15:41;;;;;;;14.35;1.70;;;-1.50;99.90;;;;;;5012528;28;20045;-81
2024/01/19 07:18:06;;;;;;;16.20;2.10;;;-1.60;99.90;;;;;;5012777;28;20044;-81
2024/01/19 07:20:32;;;;;;;10.10;1.70;;;-1.60;99.90;;;;;;5008801;28;20041;-80
2024/01/19 07:22:59;;;;;;;9.13;1.77;;;-1.60;99.90;;;;;;5030305;28;20496;-82
2024/01/19 07:25:24;;;;;;;8.90;1.63;;;-1.70;99.90;;;;;;5011230;28;20045;-81
2024/01/19 07:27:51;;;;;;;18.42;2.17;;;-1.60;99.90;;;;;;4992626;28;20057;-81
2024/01/19 07:30:17;;;;;;;12.82;1.80;;;-1.50;99.90;;;;;;4992376;28;20129;-84
2024/01/19 07:32:42;;;;;;;9.85;2.22;;;-0.40;99.90;;;;;;5005368;28;20118;-82
2024/01/19 07:35:08;;;;;;;11.63;1.70;;;-1.70;99.90;;;;;;5011033;28;20475;-80
2024/01/19 07:37:34;;;;;;;12.70;1.40;;;-1.50;99.90;;;;;;4991310;28;20484;-80
2024/01/19 07:39:59;;;;;;;11.02;1.63;;;-1.50;99.90;;;;;;4972635;28;20128;-83
2024/01/19 07:42:25;;;;;;;10.48;2.67;;;-1.60;99.90;;;;;;4993152;28;20497;-80
2024/01/19 07:44:50;;;;;;;11.68;1.60;;;-1.60;99.90;;;;;;5010440;28;20050;-81
2024/01/19 07:47:16;;;;;;;12.48;1.48;;;-1.60;99.90;;;;;;4988921;28;20125;-80
2024/01/19 07:49:42;;;;;;;12.85;2.25;;;-1.60;99.90;;;;;;5010268;28;20100;-82
2024/01/19 07:52:07;;;;;;;10.75;1.98;;;-1.50;99.90;;;;;;4989423;28;20054;-81
2024/01/19 07:54:33;;;;;;;9.80;1.35;;;-1.60;99.90;;;;;;5002898;28;20046;-81
2024/01/19 07:56:58;;;;;;;16.10;1.80;;;-1.50;99.90;;;;;;5010324;28;20440;-83
2024/01/19 07:59:24;;;;;;;8.02;1.50;;;-1.40;99.90;;;;;;4992896;28;20370;-80
2024/01/19 08:01:50;;;;;;;9.88;1.70;;;-1.40;99.90;;;;;;5003913;28;20049;-83
2024/01/19 08:04:15;;;;;;;8.18;1.30;;;-0.20;99.90;;;;;;4973337;28;20761;-81
2024/01/19 08:06:41;;;;;;;14.73;1.80;;;-1.30;99.90;;;;;;5010408;28;20084;-82
2024/01/19 08:09:07;;;;;;;13.32;1.77;;;-1.20;99.90;;;;;;4991600;28;20065;-81
2024/01/19 08:11:33;;;;;;;18.08;1.70;;;-1.20;99.90;;;;;;5009453;28;20645;-79
2024/01/19 08:13:59;;;;;;;14.55;2.08;;;-1.20;99.90;;;;;;4985193;28;20132;-81
2024/01/19 08:16:24;;;;;;;11.68;1.65;;;-1.30;99.90;;;;;;4992503;28;20112;-80
2024/01/19 08:18:50;;;;;;;10.85;1.70;;;-1.30;99.90;;;;;;4967394;28;20103;-81
2024/01/19 08:21:16;;;;;;;13.15;2.35;;;-1.20;99.90;;;;;;5010157;28;20088;-81
2024/01/19 08:23:42;;;;;;;10.00;1.60;;;-1.20;99.90;;;;;;5007905;28;20057;-82
2024/01/19 08:26:08;;;;;;;8.15;1.23;;;-1.20;99.90;;;;;;5009821;28;20057;-82
2024/01/19 08:28:34;;;;;;;22.67;1.80;;;-1.10;99.90;;;;;;4991426;28;20056;-80
2024/01/19 08:30:59;;;;;;;13.05;1.40;;;-1.10;99.90;;;;;;4992202;28;20045;-85
2024/01/19 08:33:25;;;;;;;12.10;2.17;;;-1.00;99.90;;;;;;5009781;28;20400;-80
2024/01/19 08:35:51;;;;;;;10.68;1.42;;;-1.00;99.90;;;;;;5010029;28;20457;-81
2024/01/19 08:38:17;;;;;;;10.43;1.60;;;-1.00;99.90;;;;;;5009821;28;20042;-81
2024/01/19 08:40:42;;;;;;;11.85;2.53;;;-1.00;99.90;;;;;;5009854;28;20041;-84
2024/01/19 08:43:08;;;;;;;17.58;1.40;;;-1.00;99.90;;;;;;4992099;28;20053;-82
2024/01/19 08:45:35;;;;;;;7.40;1.30;;;-0.90;99.90;;;;;;5008969;28;20041;-79
2024/01/19 08:48:02;;;;;;;10.65;1.42;;;-0.90;99.90;;;;;;5009970;28;20041;-83
2024/01/19 08:50:28;;;;;;;18.02;2.55;;;-1.00;99.90;;;;;;5009627;28;20042;-81
2024/01/19 08:52:53;;;;;;;10.65;1.50;;;-0.90;99.90;;;;;;4992103;28;20049;-80
2024/01/19 08:55:20;;;;;;;11.23;1.98;;;-0.80;99.90;;;;;;5009090;28;20060;-80
2024/01/19 08:57:46;;;;;;;16.60;2.50;;;-0.90;99.90;;;;;;5009636;28;20077;-83
2024/01/19 09:00:12;;;;;;;13.45;2.25;;;-0.80;99.90;;;;;;5010083;28;20050;-80
2024/01/19 09:02:38;;;;;;;16.67;2.50;;;-0.90;99.90;;;;;;5009687;28;20104;-83
2024/01/19 09:05:04;;;;;;;10.00;1.30;;;-0.80;99.90;;;;;;5010014;28;20053;-81
2024/01/19 09:07:30;;;;;;;9.52;1.30;;;-0.80;99.90;;;;;;4995558;28;20128;-80
2024/01/19 09:09:55;;;;;;;7.45;1.15;;;-0.80;99.90;;;;;;5013228;28;20121;-80
2024/01/19 09:12:21;;;;;;;14.38;1.40;;;-0.90;99.90;;;;;;5012956;28;20081;-81
2024/01/19 09:14:47;;;;;;;11.02;1.67;;;-0.70;99.90;;;;;;5013235;28;20030;-81
2024/01/19 09:17:13;;;;;;;11.75;1.60;;;0.50;99.90;;;;;;4994120;28;20037;-83
2024/01/19 09:19:39;;;;;;;13.38;1.88;;;-0.80;99.90;;;;;;5009444;28;20049;-84
2024/01/19 09:22:04;;;;;;;6.45;1.48;;;-0.80;99.90;;;;;;4995141;28;20058;-79
2024/01/19 09:24:30;;;;;;;15.60;2.00;;;-0.70;99.90;;;;;;5013073;28;20104;-80
2024/01/19 09:26:56;;;;;;;13.93;1.83;;;-0.60;99.90;;;;;;4992467;28;20385;-77
2024/01/19 09:29:22;;;;;;;8.68;1.40;;;-0.50;99.90;;;;;;5011415;28;20045;-79
2024/01/19 09:31:47;;;;;;;18.30;2.67;;;-0.60;99.90;;;;;;5012229;28;20037;-81
2024/01/19 09:34:14;;;;;;;12.57;1.73;;;-0.50;99.90;;;;;;4995403;28;20133;-81
2024/01/19 09:36:40;;;;;;;13.88;1.48;;;-0.40;99.90;;;;;;4979103;28;20042;-80
2024/01/19 09:39:06;;;;;;;10.45;1.55;;;-0.30;99.90;;;;;;4995170;28;20141;-80
2024/01/19 09:41:46;;;;;;;10.88;1.77;;;-0.20;99.90;;;;;;5012177;28;20408;-80
2024/01/19 09:44:12;;;;;;;11.80;2.25;;;-0.10;99.90;;;;;;4991603;28;20404;-80
2024/01/19 09:46:52;;;;;;;10.45;1.88;;;1.10;99.90;;;;;;5012881;28;20100;-82
2024/01/19 09:49:37;;;;;;;11.85;1.50;;;0.20;99.90;;;;;;5007570;28;20457;-84
2024/01/19 09:52:32;;;;;;;12.80;1.80;;;0.30;99.90;;;;;;5010290;28;20124;-77
2024/01/19 09:54:59;;;;;;;9.88;1.88;;;0.40;99.90;;;;;;4977695;28;20057;-86
2024/01/19 09:57:25;;;;;;;9.25;1.77;;;0.50;99.90;;;;;;4994710;28;20489;-83
2024/01/19 09:59:52;;;;;;;12.07;1.77;;;0.70;99.90;;;;;;4987674;28;20041;-81
2024/01/19 10:02:18;;;;;;;7.93;1.25;;;0.80;99.90;;;;;;5012653;28;20493;-81
2024/01/19 10:04:44;;;;;;;8.70;1.50;;;1.00;99.90;;;;;;5010681;28;20077;-80
2024/01/19 10:07:10;;;;;;;8.32;1.27;;;1.90;99.90;;;;;;5003583;28;20482;-81
2024/01/19 10:09:36;;;;;;;10.07;1.50;;;1.30;99.90;;;;;;4982859;28;20137;-80
2024/01/19 10:12:06;;;;;;;10.98;1.80;;;1.40;99.90;;;;;;5003862;28;20045;-83
2024/01/19 10:14:32;;;;;;;8.55;1.40;;;1.50;99.90;;;;;;5012169;28;20112;-80
2024/01/19 10:16:58;;;;;;;9.80;1.70;;;1.60;99.90;;;;;;4994199;28;20050;-79
2024/01/19 10:19:26;;;;;;;6.53;1.60;;;1.70;99.90;;;;;;4993749;28;20143;-82
2024/01/19 10:21:52;;;;;;;8.80;1.83;;;1.50;99.90;;;;;;4993780;28;20062;-80
2024/01/19 10:24:19;;;;;;;20.20;3.45;;;1.90;99.90;;;;;;4993506;28;20045;-82
2024/01/19 10:26:55;;;;;;;12.50;2.22;;;2.10;99.90;;;;;;5011639;28;20445;-81
2024/01/19 10:29:22;;;;;;;16.10;2.78;;;2.30;99.90;;;;;;4985842;28;20057;-84
2024/01/19 10:31:49;;;;;;;12.77;1.80;;;3.20;99.90;;;;;;5003640;28;20046;-83
2024/01/19 10:34:23;;;;;;;17.27;2.05;;;3.90;99.90;;;;;;5011583;28;20495;-82
2024/01/19 10:36:50;;;;;;;12.52;1.70;;;2.80;99.90;;;;;;5011631;28;20046;-83
2024/01/19 10:39:29;;;;;;;11.23;1.90;;;2.90;99.90;;;;;;5011213;28;20045;-85
2024/01/19 10:42:06;;;;;;;11.27;2.15;;;3.80;99.90;;;;;;5011110;28;20045;-84
2024/01/19 10:44:32;;;;;;;12.32;1.50;;;3.10;99.90;;;;;;5011164;28;20408;-84
2024/01/19 10:46:58;;;;;;;12.38;1.80;;;3.20;99.90;;;;;;5011437;28;20541;-83
2024/01/19 10:49:24;;;;;;;10.98;1.80;;;3.90;99.90;;;;;;4993113;28;20214;-84
2024/01/19 10:51:50;;;;;;;12.68;1.77;;;3.20;99.90;;;;;;5011510;28;20436;-82
2024/01/19 10:54:26;;;;;;;14.18;1.95;;;4.00;99.90;;;;;;5011608;28;20400;-84
2024/01/19 10:57:05;;;;;;;12.25;1.42;;;3.40;99.90;;;;;;4992442;28;20137;-83
2024/01/19 10:59:31;;;;;;;17.65;2.38;;;4.00;99.90;;;;;;4993270;28;20165;-84
2024/01/19 11:02:02;;;;;;;13.35;1.92;;;4.40;99.90;;;;;;4993809;28;20409;-83
2024/01/19 11:04:28;;;;;;;6.72;1.13;;;4.50;99.90;;;;;;4993315;28;20054;-82
2024/01/19 11:06:54;;;;;;;10.63;1.55;;;4.40;99.90;;;;;;4993088;28;20045;-84
2024/01/19 11:09:20;;;;;;;8.82;1.25;;;4.40;99.90;;;;;;4993341;28;20046;-82
2024/01/19 11:11:58;;;;;;;10.23;1.50;;;3.50;99.90;;;;;;5010829;28;20456;-83
2024/01/19 11:14:25;;;;;;;11.90;1.85;;;3.60;99.90;;;;;;4992910;28;20760;-84
2024/01/19 11:16:55;;;;;;;5.05;0.90;;;3.70;99.90;;;;;;4993083;28;20125;-83
2024/01/19 11:19:24;;;;;;;12.00;1.60;;;3.70;99.90;;;;;;4993009;28;20062;-82
2024/01/19 11:21:50;;;;;;;10.07;1.98;;;4.70;99.90;;;;;;4993146;28;20160;-85
2024/01/19 11:24:19;;;;;;;10.15;1.77;;;3.90;99.90;;;;;;5012724;28;20253;-82
2024/01/19 11:27:04;;;;;;;13.90;1.83;;;5.20;99.90;;;;;;4992856;28;20058;-82
2024/01/19 11:29:38;;;;;;;14.27;1.40;;;3.90;99.90;;;;;;4985430;28;20050;-81
2024/01/19 11:32:04;;;;;;;21.30;1.87;;;4.90;99.90;;;;;;5010968;28;20054;-81
2024/01/19 11:34:43;;;;;;;9.98;1.10;;;4.00;99.90;;;;;;5010654;28;20041;-79
2024/01/19 11:37:29;;;;;;;6.63;1.20;;;4.00;99.90;;;;;;4992853;28;20058;-80
2024/01/19 11:39:55;;;;;;;11.55;1.52;;;4.60;99.90;;;;;;4991106;28;20050;-78
2024/01/19 11:42:42;;;;;;;9.48;1.20;;;5.10;99.90;;;;;;4988322;28;20064;-81
2024/01/19 11:45:08;;;;;;;9.15;1.48;;;4.00;99.90;;;;;;5009920;28;20050;-79
2024/01/19 11:47:37;;;;;;;8.45;1.30;;;4.00;99.90;;;;;;4992740;28;20069;-87
2024/01/19 11:50:04;;;;;;;9.30;1.77;;;5.40;99.90;;;;;;4993031;28;20049;-81
2024/01/19 11:52:32;;;;;;;8.57;1.65;;;4.10;99.90;;;;;;4993241;28;20061;-89
2024/01/19 11:54:57;;;;;;;7.78;1.63;;;4.20;99.90;;;;;;4993756;28;20042;-87
2024/01/19 11:57:25;;;;;;;12.05;1.77;;;4.20;99.90;;;;;;4986154;28;20875;-80
2024/01/19 11:59:53;;;;;;;10.35;1.67;;;4.30;99.90;;;;;;4991803;28;20062;-86
2024/01/19 12:02:27;;;;;;;12.00;1.95;;;4.30;99.90;;;;;;4993217;28;20061;-82
2024/01/19 12:04:53;;;;;;;7.45;1.23;;;5.00;99.90;;;;;;5011073;28;20113;-82
2024/01/19 12:07:22;;;;;;;8.65;1.15;;;4.30;99.90;;;;;;4993368;28;20050;-81
2024/01/19 12:10:06;;;;;;;7.85;1.20;;;4.30;99.90;;;;;;4992608;28;20140;-82
2024/01/19 12:12:33;;;;;;;12.52;1.23;;;4.40;99.90;;;;;;4990557;28;20084;-83
2024/01/19 12:15:00;;;;;;;14.63;1.55;;;4.60;99.90;;;;;;5011420;28;20050;-92
2024/01/19 12:17:31;;;;;;;9.88;1.60;;;4.40;99.90;;;;;;5011712;28;20811;-83
2024/01/19 12:19:58;;;;;;;12.10;1.38;;;5.60;99.90;;;;;;4996155;28;20765;-87
2024/01/19 12:22:24;;;;;;;15.15;1.80;;;4.50;99.90;;;;;;4997003;28;20030;-96
2024/01/19 12:24:50;;;;;;;7.97;1.20;;;4.50;99.90;;;;;;5013889;28;20054;-79
2024/01/19 12:27:17;;;;;;;4.38;0.82;;;4.50;99.90;;;;;;4988019;28;20042;-83
2024/01/19 12:29:42;;;;;;;10.20;1.30;;;4.50;99.90;;;;;;5012680;28;20103;-78
2024/01/19 12:32:13;;;;;;;11.75;1.38;;;4.50;99.90;;;;;;5007270;28;20121;-78
2024/01/19 12:34:40;;;;;;;7.40;1.23;;;4.60;99.90;;;;;;5005336;28;20109;-80
2024/01/19 12:37:06;;;;;;;13.70;1.30;;;4.60;99.90;;;;;;5002534;28;20564;-79
2024/01/19 12:39:31;;;;;;;6.15;0.88;;;4.60;99.90;;;;;;5010810;28;20046;-79
2024/01/19 12:41:59;;;;;;;8.95;1.13;;;5.00;99.90;;;;;;4996175;28;20053;-80
2024/01/19 12:44:25;;;;;;;6.53;1.00;;;4.60;99.90;;;;;;5013719;28;20042;-78